createdAt,value
2024-01-11T00:00:17.544Z,39.30
2024-01-11T00:02:47.377Z,31.25
2024-01-11T00:05:15.339Z,29.12
2024-01-11T00:07:43.246Z,34.05
2024-01-11T00:10:11.020Z,32.83
2024-01-11T00:12:38.855Z,31.57
2024-01-11T00:15:07.749Z,32.67
2024-01-11T00:17:35.764Z,34.33
2024-01-11T00:20:04.191Z,34.65
2024-01-11T00:22:32.771Z,40.58
2024-01-11T00:25:00.510Z,40.43
2024-01-11T00:27:28.354Z,41.08
2024-01-11T00:29:56.111Z,42.83
2024-01-11T00:32:24.049Z,40.95
2024-01-11T00:34:51.995Z,42.20
2024-01-11T00:37:20.258Z,45.58
2024-01-11T00:39:48.278Z,45.80
2024-01-11T00:42:16.196Z,47.62
2024-01-11T00:44:45.696Z,49.90
2024-01-11T00:47:13.574Z,51.98
2024-01-11T00:49:41.669Z,52.45
2024-01-11T00:52:10.089Z,45.52
2024-01-11T00:54:38.134Z,37.98
2024-01-11T00:57:09.595Z,39.85
2024-01-11T00:59:45.554Z,42.90
2024-01-11T01:02:14.629Z,52.15
2024-01-11T01:04:47.550Z,50.67
2024-01-11T01:07:18.948Z,43.08
2024-01-11T01:09:48.409Z,38.58
2024-01-11T01:12:29.352Z,36.70
2024-01-11T01:15:04.521Z,33.57
2024-01-11T01:17:38.354Z,31.57
2024-01-11T01:22:44.046Z,26.25
2024-01-11T01:25:16.540Z,24.70
2024-01-11T01:27:45.391Z,25.72
2024-01-11T01:30:13.926Z,24.98
2024-01-11T01:32:41.934Z,26.23
2024-01-11T01:35:10.032Z,26.07
2024-01-11T01:37:38.617Z,27.15
2024-01-11T01:40:08.759Z,26.48
2024-01-11T01:42:36.671Z,25.08
2024-01-11T01:45:06.505Z,23.98
2024-01-11T01:47:34.457Z,23.62
2024-01-11T01:50:04.029Z,23.38
2024-01-11T01:52:33.337Z,22.60
2024-01-11T01:55:06.253Z,22.30
2024-01-11T01:57:36.343Z,22.02
2024-01-11T02:00:06.529Z,23.38
2024-01-11T02:02:36.825Z,26.80
2024-01-11T02:05:06.740Z,23.62
2024-01-11T02:07:35.561Z,22.87
2024-01-11T02:10:04.238Z,25.35
2024-01-11T02:12:32.592Z,29.75
2024-01-11T02:15:00.374Z,31.27
2024-01-11T02:17:28.519Z,30.70
2024-01-11T02:19:56.608Z,29.98
2024-01-11T02:22:35.768Z,27.52
2024-01-11T02:25:04.230Z,26.93
2024-01-11T02:27:32.038Z,26.65
2024-01-11T02:29:59.863Z,26.12
2024-01-11T02:32:27.983Z,23.40
2024-01-11T02:34:56.496Z,22.75
2024-01-11T02:37:24.646Z,25.85
2024-01-11T02:39:52.451Z,21.27
2024-01-11T02:42:20.515Z,21.57
2024-01-11T02:44:48.764Z,20.57
2024-01-11T02:47:16.565Z,20.95
2024-01-11T02:49:44.441Z,20.75
2024-01-11T02:52:12.379Z,20.72
2024-01-11T02:54:40.253Z,21.27
2024-01-11T02:57:08.109Z,22.80
2024-01-11T02:59:36.826Z,26.57
2024-01-11T03:02:04.892Z,23.87
2024-01-11T03:04:32.867Z,25.68
2024-01-11T03:07:00.668Z,25.45
2024-01-11T03:09:33.907Z,24.52
2024-01-11T03:12:14.174Z,26.10
2024-01-11T03:14:43.525Z,23.90
2024-01-11T03:17:11.980Z,24.43
2024-01-11T03:19:43.173Z,26.45
2024-01-11T03:22:13.152Z,32.28
2024-01-11T03:24:41.361Z,31.37
2024-01-11T03:27:09.525Z,27.30
2024-01-11T03:29:37.898Z,25.25
2024-01-11T03:32:07.315Z,23.20
2024-01-11T03:34:35.180Z,22.30
2024-01-11T03:37:02.969Z,21.05
2024-01-11T03:39:30.870Z,20.37
2024-01-11T03:41:58.666Z,20.27
2024-01-11T03:44:26.621Z,23.07
2024-01-11T03:46:54.570Z,23.47
2024-01-11T03:49:22.714Z,28.80
2024-01-11T03:51:50.514Z,32.78
2024-01-11T03:54:18.288Z,37.25
2024-01-11T03:56:46.423Z,34.67
2024-01-11T03:59:14.823Z,32.42
2024-01-11T04:01:42.753Z,31.82
2024-01-11T04:04:11.617Z,35.33
2024-01-11T04:06:39.639Z,38.17
2024-01-11T04:09:07.892Z,33.70
2024-01-11T04:11:35.809Z,34.40
2024-01-11T04:14:04.089Z,34.98
2024-01-11T04:16:32.102Z,38.08
2024-01-11T04:19:00.862Z,39.40
2024-01-11T04:21:29.524Z,38.95
2024-01-11T04:23:58.154Z,29.40
2024-01-11T04:26:26.171Z,30.35
2024-01-11T04:28:57.031Z,30.95
2024-01-11T04:31:24.044Z,28.00
2024-01-11T04:33:52.126Z,30.45
2024-01-11T04:36:20.145Z,31.35
2024-01-11T04:38:48.204Z,31.17
2024-01-11T04:41:17.008Z,28.50
2024-01-11T04:43:45.728Z,30.20
2024-01-11T04:46:22.719Z,36.65
2024-01-11T04:48:51.449Z,40.88
2024-01-11T04:51:19.926Z,37.58
2024-01-11T04:53:48.248Z,30.12
2024-01-11T04:56:18.119Z,30.57
2024-01-11T04:58:46.605Z,29.60
2024-01-11T05:01:16.458Z,30.65
2024-01-11T05:03:46.619Z,58.38
2024-01-11T05:06:23.086Z,73.33
2024-01-11T05:08:55.323Z,40.15
2024-01-11T05:11:24.925Z,30.68
2024-01-11T05:13:53.018Z,31.40
2024-01-11T05:16:23.174Z,30.90
2024-01-11T05:18:54.720Z,30.57
2024-01-11T05:21:23.518Z,27.20
2024-01-11T05:23:51.908Z,26.65
2024-01-11T05:26:20.127Z,27.65
2024-01-11T05:28:47.807Z,25.25
2024-01-11T05:31:16.996Z,25.02
2024-01-11T05:33:45.415Z,24.10
2024-01-11T05:36:13.550Z,23.32
2024-01-11T05:38:41.893Z,24.50
2024-01-11T05:41:10.325Z,23.90
2024-01-11T05:43:39.685Z,21.20
2024-01-11T05:46:08.226Z,20.85
2024-01-11T05:48:36.657Z,19.30
2024-01-11T05:51:04.620Z,21.05
2024-01-11T05:53:34.399Z,19.45
2024-01-11T05:56:03.648Z,22.82
2024-01-11T05:58:31.609Z,24.63
2024-01-11T06:00:59.522Z,28.23
2024-01-11T06:03:28.790Z,38.10
2024-01-11T06:05:57.050Z,39.15
2024-01-11T06:08:25.146Z,35.92
2024-01-11T06:10:53.147Z,38.90
2024-01-11T06:13:21.033Z,48.78
2024-01-11T06:15:50.536Z,52.75
2024-01-11T06:18:18.521Z,72.58
2024-01-11T06:20:46.531Z,34.33
2024-01-11T06:23:14.329Z,32.48
2024-01-11T06:25:42.204Z,29.57
2024-01-11T06:28:10.496Z,31.57
2024-01-11T06:30:38.329Z,37.48
2024-01-11T06:33:06.422Z,38.73
2024-01-11T06:35:34.489Z,37.20
2024-01-11T06:38:03.137Z,33.92
2024-01-11T06:40:30.912Z,35.08
2024-01-11T06:42:58.908Z,30.97
2024-01-11T06:45:26.680Z,32.70
2024-01-11T06:47:54.666Z,42.17
2024-01-11T06:50:22.850Z,43.90
2024-01-11T06:52:50.752Z,66.40
2024-01-11T06:55:18.807Z,53.65
2024-01-11T06:57:49.633Z,48.02
2024-01-11T07:00:17.865Z,52.65
2024-01-11T07:02:45.837Z,55.35
2024-01-11T07:05:14.127Z,50.98
2024-01-11T07:07:41.937Z,51.25
2024-01-11T07:10:10.172Z,51.15
2024-01-11T07:12:38.766Z,44.67
2024-01-11T07:15:08.509Z,46.63
2024-01-11T07:17:36.384Z,49.23
2024-01-11T07:20:06.453Z,49.93
2024-01-11T07:22:34.340Z,42.40
2024-01-11T07:25:02.394Z,36.38
2024-01-11T07:27:30.395Z,34.13
2024-01-11T07:29:59.107Z,27.80
2024-01-11T07:32:27.440Z,25.80
2024-01-11T07:34:55.324Z,27.75
2024-01-11T07:37:23.167Z,29.72
2024-01-11T07:39:50.997Z,27.65
2024-01-11T07:42:19.735Z,29.63
2024-01-11T07:44:47.865Z,31.50
2024-01-11T07:47:15.679Z,29.48
2024-01-11T07:49:43.598Z,26.62
2024-01-11T07:52:11.374Z,31.20
2024-01-11T07:54:39.288Z,27.05
2024-01-11T07:57:07.015Z,29.55
2024-01-11T07:59:36.594Z,30.00
2024-01-11T08:02:04.730Z,28.02
2024-01-11T08:04:32.830Z,26.40
2024-01-11T08:07:00.704Z,27.90
2024-01-11T08:09:29.709Z,29.37
2024-01-11T08:11:58.059Z,31.10
2024-01-11T08:14:28.198Z,29.32
2024-01-11T08:16:56.214Z,34.88
2024-01-11T08:19:24.325Z,34.40
2024-01-11T08:21:52.244Z,34.90
2024-01-11T08:24:21.076Z,26.45
2024-01-11T08:26:48.963Z,28.30
2024-01-11T08:29:16.781Z,28.60
2024-01-11T08:31:44.612Z,28.65
2024-01-11T08:34:12.593Z,27.77
2024-01-11T08:36:40.739Z,35.85
2024-01-11T08:39:13.213Z,35.73
2024-01-11T08:41:41.409Z,33.73
2024-01-11T08:44:10.263Z,34.30
2024-01-11T08:46:38.408Z,30.40
2024-01-11T08:49:06.347Z,30.00
2024-01-11T08:51:34.446Z,29.92
2024-01-11T08:54:02.830Z,33.50
2024-01-11T08:56:30.744Z,29.27
2024-01-11T08:58:59.639Z,27.07
2024-01-11T09:01:27.907Z,23.90
2024-01-11T09:03:55.802Z,28.07
2024-01-11T09:06:23.680Z,22.40
2024-01-11T09:08:51.666Z,23.73
2024-01-11T09:11:19.466Z,23.60
2024-01-11T09:13:47.488Z,21.25
2024-01-11T09:16:17.748Z,26.55
2024-01-11T09:18:46.546Z,36.83
2024-01-11T09:21:14.590Z,29.10
2024-01-11T09:23:42.557Z,20.37
2024-01-11T09:26:10.790Z,14.33
2024-01-11T09:28:38.636Z,18.98
2024-01-11T09:31:06.589Z,16.82
2024-01-11T09:33:34.867Z,13.08
2024-01-11T09:36:03.339Z,10.23
2024-01-11T09:38:32.090Z,12.35
2024-01-11T09:41:15.057Z,15.13
2024-01-11T09:43:43.675Z,17.60
2024-01-11T09:46:12.883Z,16.23
2024-01-11T09:48:44.845Z,14.83
2024-01-11T09:51:13.584Z,11.05
2024-01-11T09:53:43.753Z,15.45
2024-01-11T09:56:11.939Z,16.25
2024-01-11T09:58:45.229Z,15.90
2024-01-11T10:01:14.905Z,15.15
2024-01-11T10:03:43.201Z,13.55
2024-01-11T10:06:11.945Z,14.20
2024-01-11T10:08:39.893Z,13.05
2024-01-11T10:11:08.249Z,11.50
2024-01-11T10:13:38.137Z,10.98
2024-01-11T10:16:13.247Z,11.08
2024-01-11T10:18:41.512Z,10.13
2024-01-11T10:21:10.319Z,10.50
2024-01-11T10:23:39.645Z,12.70
2024-01-11T10:26:10.438Z,10.53
2024-01-11T10:28:38.449Z,10.05
2024-01-11T10:31:07.777Z,11.63
2024-01-11T10:33:36.553Z,11.15
2024-01-11T10:36:06.595Z,10.43
2024-01-11T10:38:37.969Z,9.13
2024-01-11T10:41:10.597Z,10.55
2024-01-11T10:43:39.479Z,10.63
2024-01-11T10:46:08.972Z,9.63
2024-01-11T10:48:42.317Z,9.93
2024-01-11T10:51:13.960Z,9.53
2024-01-11T10:53:47.896Z,10.38
2024-01-11T10:56:20.801Z,11.38
2024-01-11T10:58:49.418Z,11.10
2024-01-11T11:01:19.055Z,10.82
2024-01-11T11:03:49.401Z,10.20
2024-01-11T11:06:19.974Z,11.03
2024-01-11T11:08:50.473Z,11.22
2024-01-11T11:11:19.501Z,11.05
2024-01-11T11:13:51.867Z,12.30
2024-01-11T11:16:20.501Z,11.57
2024-01-11T11:18:48.630Z,12.40
2024-01-11T11:21:16.442Z,12.37
2024-01-11T11:23:45.748Z,12.05
2024-01-11T11:26:20.999Z,12.85
2024-01-11T11:28:49.488Z,13.88
2024-01-11T11:31:43.886Z,14.07
2024-01-11T11:34:15.282Z,12.33
2024-01-11T11:36:43.698Z,12.98
2024-01-11T11:39:14.040Z,13.88
2024-01-11T11:41:43.205Z,15.35
2024-01-11T11:44:16.475Z,13.45
2024-01-11T11:46:45.848Z,15.10
2024-01-11T11:49:15.072Z,14.68
2024-01-11T11:51:44.515Z,14.63
2024-01-11T11:54:14.640Z,15.13
2024-01-11T11:56:43.130Z,15.65
2024-01-11T11:59:11.116Z,14.33
2024-01-11T12:01:40.713Z,13.90
2024-01-11T12:04:09.602Z,14.63
2024-01-11T12:06:38.406Z,13.83
2024-01-11T12:09:07.137Z,13.48
2024-01-11T12:11:35.081Z,13.28
2024-01-11T12:14:02.898Z,14.23
2024-01-11T12:16:30.655Z,13.70
2024-01-11T12:18:58.682Z,14.15
2024-01-11T12:21:27.515Z,14.15
2024-01-11T12:23:56.508Z,15.10
2024-01-11T12:26:24.846Z,13.88
2024-01-11T12:28:53.619Z,13.20
2024-01-11T12:31:22.786Z,13.95
2024-01-11T12:33:51.487Z,13.80
2024-01-11T12:36:19.750Z,13.80
2024-01-11T12:38:53.027Z,14.47
2024-01-11T12:41:22.416Z,14.13
2024-01-11T12:43:50.417Z,14.53
2024-01-11T12:46:18.348Z,14.15
2024-01-11T12:48:46.462Z,14.03
2024-01-11T12:53:50.676Z,13.68
2024-01-11T12:56:22.018Z,13.48
2024-01-11T12:58:49.766Z,13.08
2024-01-11T13:01:18.704Z,13.25
2024-01-11T13:03:47.748Z,13.15
2024-01-11T13:06:18.865Z,13.90
2024-01-11T13:08:46.957Z,13.22
2024-01-11T13:11:16.769Z,13.78
2024-01-11T13:13:46.467Z,13.20
2024-01-11T13:16:15.636Z,13.88
2024-01-11T13:18:43.674Z,13.62
2024-01-11T13:21:13.042Z,14.28
2024-01-11T13:23:41.203Z,13.40
2024-01-11T13:26:09.577Z,13.05
2024-01-11T13:28:37.634Z,14.05
2024-01-11T13:31:05.939Z,13.88
2024-01-11T13:33:33.783Z,13.60
2024-01-11T13:36:01.862Z,13.20
2024-01-11T13:38:29.922Z,14.33
2024-01-11T13:40:57.612Z,13.43
2024-01-11T13:43:25.423Z,43.85
2024-01-11T13:45:54.992Z,14.05
2024-01-11T13:48:22.696Z,13.35
2024-01-11T13:50:50.612Z,14.68
2024-01-11T13:53:18.669Z,13.15
2024-01-11T13:55:46.588Z,14.18
2024-01-11T13:58:14.554Z,16.70
2024-01-11T14:00:42.502Z,12.47
2024-01-11T14:03:11.191Z,12.23
2024-01-11T14:05:39.319Z,12.98
2024-01-11T14:08:08.247Z,12.45
2024-01-11T14:10:36.336Z,13.08
2024-01-11T14:13:04.682Z,13.45
2024-01-11T14:15:32.751Z,13.85
2024-01-11T14:18:00.801Z,13.45
2024-01-11T14:20:29.363Z,13.50
2024-01-11T14:22:57.428Z,13.35
2024-01-11T14:25:25.420Z,14.63
2024-01-11T14:27:55.814Z,17.05
2024-01-11T14:30:25.759Z,14.60
2024-01-11T14:32:54.257Z,15.40
2024-01-11T14:35:22.349Z,19.65
2024-01-11T14:37:50.218Z,18.02
2024-01-11T14:40:17.963Z,19.15
2024-01-11T14:42:46.743Z,18.70
2024-01-11T14:45:14.540Z,17.70
2024-01-11T14:47:42.658Z,18.35
2024-01-11T14:50:12.223Z,16.90
2024-01-11T14:52:40.242Z,17.73
2024-01-11T14:55:10.209Z,18.67
2024-01-11T14:57:40.390Z,17.62
2024-01-11T15:00:10.817Z,17.17
2024-01-11T15:02:38.889Z,18.87
2024-01-11T15:05:07.781Z,18.00
2024-01-11T15:07:35.781Z,18.40
2024-01-11T15:10:04.077Z,18.60
2024-01-11T15:12:32.103Z,20.88
2024-01-11T15:15:00.091Z,22.60
2024-01-11T15:17:30.308Z,23.62
2024-01-11T15:19:58.529Z,24.60
2024-01-11T15:22:27.429Z,25.10
2024-01-11T15:24:55.480Z,30.15
2024-01-11T15:27:23.342Z,31.20
2024-01-11T15:29:54.156Z,32.08
2024-01-11T15:32:23.290Z,34.55
2024-01-11T15:34:51.771Z,35.50
2024-01-11T15:37:20.414Z,35.58
2024-01-11T15:39:48.272Z,49.63
2024-01-11T15:42:16.805Z,70.17
2024-01-11T15:44:45.302Z,58.15
2024-01-11T15:47:13.504Z,54.42
2024-01-11T15:49:41.515Z,48.65
2024-01-11T15:52:10.566Z,42.20
2024-01-11T15:54:38.499Z,38.80
2024-01-11T15:57:07.572Z,39.40
2024-01-11T15:59:35.675Z,38.98
2024-01-11T16:02:07.510Z,35.55
2024-01-11T16:04:36.043Z,22.77
2024-01-11T16:07:04.527Z,19.02
2024-01-11T16:09:32.654Z,19.62
2024-01-11T16:12:04.129Z,23.40
2024-01-11T16:14:30.096Z,28.92
2024-01-11T16:16:58.237Z,28.38
2024-01-11T16:19:26.606Z,27.55
2024-01-11T16:21:54.646Z,26.10
2024-01-11T16:24:22.505Z,23.52
2024-01-11T16:26:50.648Z,23.18
2024-01-11T16:29:18.544Z,21.57
2024-01-11T16:31:46.331Z,24.82
2024-01-11T16:34:16.071Z,29.12
2024-01-11T16:36:44.927Z,39.65
2024-01-11T16:39:12.682Z,35.60
2024-01-11T16:41:42.604Z,36.65
2024-01-11T16:44:10.655Z,34.33
2024-01-11T16:46:38.379Z,28.90
2024-01-11T16:49:07.344Z,27.60
2024-01-11T16:51:35.505Z,25.62
2024-01-11T16:54:05.104Z,32.67
2024-01-11T16:56:32.952Z,35.33
2024-01-11T16:59:00.819Z,36.23
2024-01-11T17:01:28.780Z,34.53
2024-01-11T17:03:56.848Z,35.63
2024-01-11T17:06:24.924Z,31.93
2024-01-11T17:08:53.602Z,28.07
2024-01-11T17:11:21.450Z,27.95
2024-01-11T17:13:49.266Z,25.82
2024-01-11T17:16:21.509Z,25.82
2024-01-11T17:18:49.877Z,25.35
2024-01-11T17:21:17.975Z,26.62
2024-01-11T17:23:46.038Z,29.85
2024-01-11T17:26:15.505Z,34.10
2024-01-11T17:28:43.659Z,40.48
2024-01-11T17:31:11.420Z,38.15
2024-01-11T17:33:39.199Z,44.95
2024-01-11T17:36:08.843Z,37.45
2024-01-11T17:38:38.103Z,34.80
2024-01-11T17:41:06.106Z,35.68
2024-01-11T17:43:35.893Z,34.85
2024-01-11T17:46:05.353Z,52.20
2024-01-11T17:48:33.335Z,42.95
2024-01-11T17:51:01.452Z,41.28
2024-01-11T17:53:29.452Z,42.25
2024-01-11T17:55:57.374Z,46.10
2024-01-11T17:58:25.313Z,50.30
2024-01-11T18:00:54.574Z,50.30
2024-01-11T18:03:22.646Z,50.55
2024-01-11T18:05:50.493Z,50.58
2024-01-11T18:08:18.593Z,48.98
2024-01-11T18:10:46.484Z,42.25
2024-01-11T18:13:15.136Z,43.95
2024-01-11T18:15:42.951Z,41.53
2024-01-11T18:18:10.852Z,38.73
2024-01-11T18:20:38.744Z,42.65
2024-01-11T18:23:07.043Z,42.48
2024-01-11T18:25:35.449Z,41.05
2024-01-11T18:28:03.482Z,39.08
2024-01-11T18:30:31.262Z,41.37
2024-01-11T18:33:00.445Z,37.33
2024-01-11T18:35:28.659Z,31.35
2024-01-11T18:37:56.466Z,33.73
2024-01-11T18:40:25.859Z,31.20
2024-01-11T18:42:55.045Z,31.35
2024-01-11T18:45:22.944Z,30.15
2024-01-11T18:47:51.021Z,31.57
2024-01-11T18:50:19.658Z,33.42
2024-01-11T18:52:47.564Z,32.10
2024-01-11T18:55:18.018Z,27.27
2024-01-11T18:57:46.749Z,27.58
2024-01-11T19:00:15.752Z,27.60
2024-01-11T19:02:44.590Z,28.90
2024-01-11T19:05:14.120Z,28.73
2024-01-11T19:07:43.741Z,38.63
2024-01-11T19:10:11.677Z,41.02
2024-01-11T19:12:39.542Z,37.80
2024-01-11T19:15:08.854Z,33.00
2024-01-11T19:17:36.880Z,35.63
2024-01-11T19:20:06.409Z,33.10
2024-01-11T19:22:34.339Z,36.33
2024-01-11T19:25:03.951Z,35.65
2024-01-11T19:27:32.220Z,35.58
2024-01-11T19:30:01.952Z,37.78
2024-01-11T19:32:31.014Z,40.98
2024-01-11T19:34:58.896Z,44.88
2024-01-11T19:37:26.631Z,53.48
2024-01-11T19:39:54.400Z,55.67
2024-01-11T19:42:22.339Z,56.18
2024-01-11T19:44:50.177Z,45.33
2024-01-11T19:47:19.636Z,35.55
2024-01-11T19:49:47.654Z,28.65
2024-01-11T19:52:15.559Z,26.65
2024-01-11T19:54:43.446Z,35.30
2024-01-11T19:57:11.325Z,24.43
2024-01-11T19:59:42.445Z,25.80
2024-01-11T20:02:11.190Z,28.52
2024-01-11T20:04:39.261Z,44.05
2024-01-11T20:07:07.545Z,61.88
2024-01-11T20:09:35.622Z,70.55
2024-01-11T20:12:05.712Z,65.22
2024-01-11T20:14:34.918Z,28.67
2024-01-11T20:17:03.230Z,14.53
2024-01-11T20:19:32.410Z,13.50
2024-01-11T20:22:00.283Z,11.30
2024-01-11T20:24:28.334Z,11.55
2024-01-11T20:26:56.320Z,12.73
2024-01-11T20:29:25.986Z,13.20
2024-01-11T20:31:54.038Z,19.35
2024-01-11T20:34:22.142Z,17.17
2024-01-11T20:36:50.025Z,28.77
2024-01-11T20:39:17.931Z,23.07
2024-01-11T20:41:46.168Z,16.12
2024-01-11T20:44:15.868Z,25.75
2024-01-11T20:46:43.904Z,34.75
2024-01-11T20:49:11.773Z,30.23
2024-01-11T20:51:43.427Z,18.87
2024-01-11T20:54:11.221Z,14.75
2024-01-11T20:56:44.466Z,19.55
2024-01-11T20:59:12.296Z,14.45
2024-01-11T21:01:40.195Z,17.15
2024-01-11T21:04:08.460Z,16.23
2024-01-11T21:06:36.546Z,29.45
2024-01-11T21:09:06.467Z,36.28
2024-01-11T21:11:34.502Z,41.68
2024-01-11T21:14:02.498Z,23.05
2024-01-11T21:16:30.602Z,21.37
2024-01-11T21:18:58.575Z,15.43
2024-01-11T21:21:27.049Z,27.87
2024-01-11T21:23:59.598Z,15.55
2024-01-11T21:26:28.423Z,19.27
2024-01-11T21:28:56.584Z,26.30
2024-01-11T21:31:26.415Z,26.82
2024-01-11T21:33:54.637Z,21.65
2024-01-11T21:36:25.349Z,24.72
2024-01-11T21:38:55.298Z,21.20
2024-01-11T21:41:25.098Z,28.32
2024-01-11T21:43:55.496Z,22.90
2024-01-11T21:46:26.482Z,57.23
2024-01-11T21:48:55.051Z,59.85
2024-01-11T21:51:23.373Z,40.33
2024-01-11T21:53:55.863Z,28.45
2024-01-11T21:56:27.197Z,33.02
2024-01-11T21:58:55.647Z,34.23
2024-01-11T22:01:23.993Z,20.48
2024-01-11T22:03:53.332Z,20.77
2024-01-11T22:06:23.072Z,27.42
2024-01-11T22:08:51.132Z,21.82
2024-01-11T22:11:19.394Z,21.90
2024-01-11T22:13:47.313Z,20.30
2024-01-11T22:16:15.408Z,20.65
2024-01-11T22:18:43.370Z,18.52
2024-01-11T22:21:11.451Z,15.95
2024-01-11T22:23:39.320Z,16.90
2024-01-11T22:26:07.155Z,18.92
2024-01-11T22:28:35.079Z,14.98
2024-01-11T22:31:03.064Z,15.20
2024-01-11T22:33:32.552Z,15.80
2024-01-11T22:36:00.593Z,15.65
2024-01-11T22:38:30.010Z,19.92
2024-01-11T22:40:57.940Z,16.25
2024-01-11T22:43:25.895Z,16.67
2024-01-11T22:45:54.163Z,18.30
2024-01-11T22:48:22.351Z,17.73
2024-01-11T22:50:50.411Z,15.43
2024-01-11T22:53:18.357Z,17.87
2024-01-11T22:55:46.086Z,16.20
2024-01-11T22:58:13.999Z,16.27
2024-01-11T23:00:44.791Z,25.37
2024-01-11T23:03:12.822Z,18.07
2024-01-11T23:05:40.910Z,15.35
2024-01-11T23:08:08.780Z,14.70
2024-01-11T23:10:37.872Z,27.95
2024-01-11T23:13:08.131Z,20.12
2024-01-11T23:15:36.252Z,18.20
2024-01-11T23:18:04.955Z,16.77
2024-01-11T23:20:33.170Z,18.48
2024-01-11T23:23:01.070Z,19.42
2024-01-11T23:25:30.715Z,17.90
2024-01-11T23:27:58.445Z,17.85
2024-01-11T23:30:26.534Z,16.80
2024-01-11T23:32:54.625Z,17.87
2024-01-11T23:35:22.630Z,20.00
2024-01-11T23:37:50.497Z,19.27
2024-01-11T23:40:20.100Z,19.87
2024-01-11T23:42:47.924Z,16.42
2024-01-11T23:45:15.766Z,18.27
2024-01-11T23:47:43.790Z,18.50
2024-01-11T23:50:12.000Z,17.60
2024-01-11T23:52:40.031Z,18.25
2024-01-11T23:55:08.060Z,16.87
2024-01-11T23:57:35.880Z,16.23
